LKMB weather

Mladá Boleslav Airport
Mladá Boleslav, Central Bohemian Region, Czechia

Public forecast

Using degrees Celsius for public forecast. Weather courtesy of forecast.io.

METAR (pilot weather report)

Closest report is Kbely Air Base, 21.5 nm (39.8 km) SW. Retrieved 2019/05/19 21:00 UTC (49 minutes ago):

LKKB 192100Z 09004KT CAVOK 16/10 Q1003

TAF (pilot weather forecast)

Closest forecast is Kbely Air Base, 21.5 nm (39.8 km) SW. Retrieved 2019/05/19 18:00 UTC (4 hours ago):

TAF LKKB 191700Z 1918/2018 07010KT CAVOK TEMPO 1918/1920 09014KT BECMG 1921/1923 09006KT BECMG 2002/2008 5000 BR BECMG 2006/2009 14008KT 6000 RA BKN012 OVC020 PROB40 TEMPO 2010/2016 3000 TSRA